createdAt,value
2022-11-17T00:01:27.282Z,99537.81
2022-11-17T00:03:57.429Z,99533.22
2022-11-17T00:06:26.151Z,99528.81
2022-11-17T00:08:55.166Z,99545.56
2022-11-17T00:11:24.097Z,99546.72
2022-11-17T00:14:10.613Z,99525.03
2022-11-17T00:16:39.387Z,99532.72
2022-11-17T00:19:27.654Z,99438.56
2022-11-17T00:21:56.441Z,99536.16
2022-11-17T00:24:25.225Z,99535.53
2022-11-17T00:27:02.794Z,99546.97
2022-11-17T00:29:32.214Z,99526.28
2022-11-17T00:32:18.714Z,99506.34
2022-11-17T00:34:49.030Z,99530.66
2022-11-17T00:37:18.142Z,99517.69
2022-11-17T00:39:47.047Z,99542.75
2022-11-17T00:42:15.734Z,99506.50
2022-11-17T00:44:44.511Z,99516.16
2022-11-17T00:47:13.588Z,99504.72
2022-11-17T00:49:42.294Z,99518.09
2022-11-17T00:52:12.416Z,99527.03
2022-11-17T00:54:41.413Z,99494.31
2022-11-17T00:57:10.157Z,99525.34
2022-11-17T00:59:39.135Z,99517.31
2022-11-17T01:02:07.980Z,99529.19
2022-11-17T01:04:36.846Z,99530.03
2022-11-17T01:07:05.914Z,99516.53
2022-11-17T01:09:36.458Z,99518.94
2022-11-17T01:12:05.617Z,99512.34
2022-11-17T01:14:34.472Z,99500.16
2022-11-17T01:17:03.374Z,99526.66
2022-11-17T01:19:32.497Z,99497.72
2022-11-17T01:22:01.939Z,99514.88
2022-11-17T01:24:30.994Z,99483.66
2022-11-17T01:27:01.757Z,99509.44
2022-11-17T01:29:30.634Z,99521.09
2022-11-17T01:32:00.204Z,99533.06
2022-11-17T01:34:29.304Z,99529.75
2022-11-17T01:37:15.821Z,99527.03
2022-11-17T01:39:45.530Z,99525.25
2022-11-17T01:42:18.870Z,99529.47
2022-11-17T01:45:00.260Z,99540.16
2022-11-17T01:47:39.067Z,99535.69
2022-11-17T01:50:20.513Z,99545.56
2022-11-17T01:52:51.933Z,99544.53
2022-11-17T01:55:23.303Z,99534.72
2022-11-17T01:57:59.623Z,99530.91
2022-11-17T02:00:30.100Z,99537.56
2022-11-17T02:03:00.170Z,99450.75
2022-11-17T02:05:41.446Z,99536.59
2022-11-17T02:08:12.073Z,99508.69
2022-11-17T02:10:42.438Z,99533.22
2022-11-17T02:13:15.176Z,99503.69
2022-11-17T02:15:44.235Z,99539.84
2022-11-17T02:18:13.454Z,99532.31
2022-11-17T02:20:54.777Z,99539.84
2022-11-17T02:23:54.067Z,99537.66
2022-11-17T02:26:41.849Z,99496.38
2022-11-17T02:29:21.773Z,99524.78
2022-11-17T02:31:59.357Z,99532.84
2022-11-17T02:34:36.743Z,99493.50
2022-11-17T02:37:12.822Z,99511.25
2022-11-17T02:39:48.309Z,99494.25
2022-11-17T02:42:45.532Z,99545.66
2022-11-17T02:45:20.270Z,99540.59
2022-11-17T02:47:51.803Z,99530.56
2022-11-17T02:50:28.270Z,99542.59
2022-11-17T02:52:58.093Z,99526.69
2022-11-17T02:55:27.772Z,99541.28
2022-11-17T02:57:56.677Z,99520.34
2022-11-17T03:00:28.656Z,99537.06
2022-11-17T03:03:12.191Z,99517.53
2022-11-17T03:05:54.289Z,99518.81
2022-11-17T03:08:33.283Z,99524.06
2022-11-17T03:11:05.343Z,99547.09
2022-11-17T03:13:45.458Z,99544.63
2022-11-17T03:16:26.397Z,99517.69
2022-11-17T03:19:05.358Z,99540.25
2022-11-17T03:21:41.389Z,99535.06
2022-11-17T03:24:18.136Z,99547.88
2022-11-17T03:26:51.753Z,99555.47
2022-11-17T03:29:25.149Z,99548.47
2022-11-17T03:32:00.103Z,99542.00
2022-11-17T03:34:33.163Z,99521.22
2022-11-17T03:37:05.859Z,99529.72
2022-11-17T03:39:37.311Z,99541.41
2022-11-17T03:42:11.819Z,99505.38
2022-11-17T03:44:44.775Z,99528.94
2022-11-17T03:47:19.877Z,99540.22
2022-11-17T03:49:56.466Z,99539.34
2022-11-17T03:52:25.949Z,99514.91
2022-11-17T03:54:55.573Z,99537.47
2022-11-17T03:57:33.257Z,99510.94
2022-11-17T04:00:05.311Z,99492.03
2022-11-17T04:02:46.031Z,99522.78
2022-11-17T04:05:15.877Z,99517.00
2022-11-17T04:07:45.999Z,99522.41
2022-11-17T04:10:16.425Z,99515.19
2022-11-17T04:13:03.175Z,99520.66
2022-11-17T04:15:50.190Z,99511.16
2022-11-17T04:18:21.413Z,99500.69
2022-11-17T04:20:51.328Z,99502.94
2022-11-17T04:23:20.750Z,99492.13
2022-11-17T04:26:09.331Z,99509.91
2022-11-17T04:28:41.187Z,99518.25
2022-11-17T04:31:13.314Z,99522.78
2022-11-17T04:33:45.429Z,99512.75
2022-11-17T04:36:17.318Z,99504.53
2022-11-17T04:38:48.568Z,99522.22
2022-11-17T04:41:36.774Z,99514.56
2022-11-17T04:44:07.542Z,99497.28
2022-11-17T04:46:38.605Z,99512.22
2022-11-17T04:49:09.624Z,99511.03
2022-11-17T04:51:39.440Z,99487.22
2022-11-17T04:54:09.996Z,99508.91
2022-11-17T04:56:39.894Z,99517.28
2022-11-17T04:59:09.654Z,99514.59
2022-11-17T05:01:39.541Z,99492.47
2022-11-17T05:04:13.494Z,99510.41
2022-11-17T05:06:44.670Z,99524.78
2022-11-17T05:09:15.262Z,99530.31
2022-11-17T05:12:03.043Z,99535.13
2022-11-17T05:14:32.472Z,99541.47
2022-11-17T05:17:10.103Z,99538.09
2022-11-17T05:19:44.266Z,99472.94
2022-11-17T05:22:35.247Z,99525.91
2022-11-17T05:25:04.778Z,99518.13
2022-11-17T05:27:34.981Z,99542.91
2022-11-17T05:30:05.207Z,99512.44
2022-11-17T05:32:34.408Z,99550.13
2022-11-17T05:35:05.244Z,99559.63
2022-11-17T05:37:34.668Z,99554.88
2022-11-17T05:40:05.292Z,99565.44
2022-11-17T05:42:36.266Z,99501.81
2022-11-17T05:45:06.644Z,99568.75
2022-11-17T05:47:35.514Z,99569.69
2022-11-17T05:50:06.764Z,99573.13
2022-11-17T05:52:37.175Z,99579.81
2022-11-17T05:55:11.730Z,99579.22
2022-11-17T05:57:43.281Z,99567.63
2022-11-17T06:00:15.350Z,99578.59
2022-11-17T06:02:48.863Z,99571.97
2022-11-17T06:05:20.591Z,99597.28
2022-11-17T06:07:51.125Z,99581.56
2022-11-17T06:10:20.542Z,99589.72
2022-11-17T06:12:49.978Z,99567.28
2022-11-17T06:15:19.524Z,99560.66
2022-11-17T06:17:54.583Z,99548.38
2022-11-17T06:20:28.234Z,99447.69
2022-11-17T06:23:02.286Z,99552.59
2022-11-17T06:25:33.740Z,99549.91
2022-11-17T06:28:07.798Z,99545.16
2022-11-17T06:30:40.206Z,99523.78
2022-11-17T06:33:13.543Z,99512.47
2022-11-17T06:35:45.868Z,99539.22
2022-11-17T06:38:16.263Z,99535.97
2022-11-17T06:40:46.291Z,99535.59
2022-11-17T06:43:19.677Z,99532.84
2022-11-17T06:45:49.165Z,99519.91
2022-11-17T06:48:25.305Z,99528.09
2022-11-17T06:50:56.613Z,99538.28
2022-11-17T06:53:26.793Z,99521.78
2022-11-17T06:56:05.620Z,99517.41
2022-11-17T06:58:36.005Z,99531.78
2022-11-17T10:24:09.881Z,99433.16
2022-11-17T10:26:47.807Z,99443.50
2022-11-17T10:29:23.994Z,99448.44
2022-11-17T10:31:52.797Z,99376.44
2022-11-17T10:34:38.928Z,99457.19
2022-11-17T10:37:26.525Z,99407.03
2022-11-17T10:40:19.250Z,99421.69
2022-11-17T10:43:06.561Z,99456.44
2022-11-17T10:45:40.181Z,99458.31
2022-11-17T10:48:17.957Z,99446.47
2022-11-17T10:50:53.661Z,99447.00
2022-11-17T10:53:25.795Z,99450.69
2022-11-17T10:55:59.112Z,99442.50
2022-11-17T10:58:30.013Z,99331.97
2022-11-17T11:01:01.042Z,99413.47
2022-11-17T11:03:32.172Z,99437.06
2022-11-17T11:06:04.282Z,99345.97
2022-11-17T11:08:45.893Z,99438.78
2022-11-17T11:11:22.811Z,99436.25
2022-11-17T11:13:57.444Z,99426.84
2022-11-17T11:16:27.678Z,99441.19
2022-11-17T11:18:56.481Z,99435.63
2022-11-17T11:21:46.779Z,99436.63
2022-11-17T11:24:24.727Z,99446.88
2022-11-17T11:27:06.951Z,99447.16
2022-11-17T11:29:53.376Z,99441.97
2022-11-17T11:32:31.184Z,99418.28
2022-11-17T11:35:31.212Z,99444.34
2022-11-17T11:38:13.479Z,99431.16
2022-11-17T11:40:44.904Z,99436.69
2022-11-17T11:43:31.853Z,99365.50
2022-11-17T11:46:09.500Z,99433.63
2022-11-17T11:48:42.055Z,99426.94
2022-11-17T11:51:18.797Z,99393.41
2022-11-17T11:53:53.915Z,99434.22
2022-11-17T11:56:29.923Z,99421.88
2022-11-17T11:59:03.852Z,99449.75
2022-11-17T12:01:47.807Z,99436.38
2022-11-17T12:04:27.801Z,99427.09
2022-11-17T12:07:11.265Z,99414.69
2022-11-17T12:09:58.745Z,99398.31
2022-11-17T12:12:32.887Z,99402.97
2022-11-17T12:15:12.273Z,99392.00
2022-11-17T12:17:59.761Z,99423.59
2022-11-17T12:21:01.219Z,99367.31
2022-11-17T12:23:55.669Z,99374.97
2022-11-17T12:26:28.718Z,99399.16
2022-11-17T12:29:29.248Z,99404.88
2022-11-17T12:32:03.720Z,99403.94
2022-11-17T12:34:37.382Z,99393.34
2022-11-17T12:37:22.948Z,99414.00
2022-11-17T12:40:00.804Z,99409.06
2022-11-17T12:42:30.993Z,99400.38
2022-11-17T12:45:01.644Z,99379.63
2022-11-17T12:47:35.110Z,99364.03
2022-11-17T12:50:39.790Z,99402.22
2022-11-17T12:53:41.619Z,99323.78
2022-11-17T12:56:24.616Z,99399.81
2022-11-17T12:59:05.387Z,99393.09
2022-11-17T13:01:43.437Z,99398.75
2022-11-17T16:07:01.695Z,99191.22
2022-11-17T16:09:35.957Z,99357.00
2022-11-17T16:12:08.041Z,99313.00
2022-11-17T16:14:40.503Z,99331.81
2022-11-17T16:17:24.447Z,99239.16
2022-11-17T16:19:54.055Z,99373.56
2022-11-17T16:22:29.149Z,99244.78
2022-11-17T16:24:58.697Z,99391.91
2022-11-17T16:27:30.974Z,99387.50
2022-11-17T16:30:01.572Z,99285.94
2022-11-17T16:32:32.641Z,99332.63
2022-11-17T16:35:04.494Z,99345.09
2022-11-17T16:37:35.654Z,99376.13
2022-11-17T16:40:06.140Z,99375.03
2022-11-17T16:42:37.829Z,99362.13
2022-11-17T16:45:09.268Z,99147.03
2022-11-17T16:47:39.456Z,99278.72
2022-11-17T16:50:12.117Z,99363.34
2022-11-17T16:52:53.115Z,99258.44
2022-11-17T16:55:22.380Z,99134.22
2022-11-17T16:57:52.195Z,99268.09
2022-11-17T17:00:22.064Z,99277.16
2022-11-17T17:02:53.198Z,99351.47
2022-11-17T17:05:29.721Z,99261.94
2022-11-17T17:08:00.970Z,99257.78
2022-11-17T17:10:30.648Z,99277.06
2022-11-17T17:13:00.796Z,99246.47
2022-11-17T17:15:32.081Z,99134.41
2022-11-17T17:18:06.156Z,99331.66
2022-11-17T17:20:53.317Z,99265.25
2022-11-17T17:23:28.993Z,99238.63
2022-11-17T17:26:03.033Z,99125.94
2022-11-17T17:28:36.052Z,99312.25
2022-11-17T17:31:06.492Z,99249.97
2022-11-17T17:33:39.991Z,99316.03
2022-11-17T17:36:17.388Z,99220.06
2022-11-17T17:38:53.616Z,99309.97
2022-11-17T17:41:29.182Z,99121.53
2022-11-17T17:44:01.022Z,99349.19
2022-11-17T17:46:32.737Z,99351.19
2022-11-17T17:49:03.118Z,99133.66
2022-11-17T17:51:40.342Z,99137.75
2022-11-17T17:54:18.643Z,99257.81
2022-11-17T17:56:49.124Z,99357.03
2022-11-17T17:59:19.432Z,99358.81
2022-11-17T18:01:54.598Z,99369.88
2022-11-17T18:04:24.744Z,99131.03
2022-11-17T18:06:56.070Z,99285.69
2022-11-17T18:09:31.098Z,99260.16
2022-11-17T18:12:01.662Z,99347.56
2022-11-17T18:15:00.292Z,99334.47
2022-11-17T18:17:30.551Z,99327.28
2022-11-17T18:19:59.822Z,99311.38
2022-11-17T18:22:29.152Z,99109.91
2022-11-17T18:25:03.748Z,99341.34
2022-11-17T18:27:35.949Z,99340.06
2022-11-17T18:30:09.131Z,99342.31
2022-11-17T18:32:43.759Z,99329.72
2022-11-17T18:35:13.335Z,99218.03
2022-11-17T18:37:42.691Z,99337.59
2022-11-17T18:40:14.956Z,99219.22
2022-11-17T18:42:44.836Z,99175.53
2022-11-17T18:45:17.721Z,99148.91
2022-11-17T18:47:48.267Z,99114.53
2022-11-17T18:50:18.521Z,99203.88
2022-11-17T18:52:48.900Z,99194.84
2022-11-17T18:55:19.830Z,99241.97
2022-11-17T18:57:49.375Z,99327.50
2022-11-17T19:00:20.139Z,99321.16
2022-11-17T19:02:50.239Z,99093.25
2022-11-17T19:05:25.204Z,99294.50
2022-11-17T19:08:05.076Z,99341.78
2022-11-17T19:10:59.795Z,99327.78
2022-11-17T19:13:34.608Z,99259.22
2022-11-17T20:40:45.389Z,99245.06
2022-11-17T20:43:14.366Z,99261.84
2022-11-17T20:45:43.306Z,99211.81
2022-11-17T20:48:12.188Z,99275.13
2022-11-17T20:50:41.194Z,99258.72
2022-11-17T20:53:10.074Z,99251.28
2022-11-17T20:55:39.012Z,99254.13
2022-11-17T20:58:09.234Z,99218.88
2022-11-17T21:00:38.272Z,99254.59
2022-11-17T21:03:08.414Z,99250.38
2022-11-17T21:05:40.736Z,99270.47
2022-11-17T21:08:10.190Z,99241.97
2022-11-17T21:10:39.415Z,99266.81
2022-11-17T21:13:09.809Z,99274.44
2022-11-17T21:15:38.838Z,99280.44
2022-11-17T21:18:26.159Z,99278.94
2022-11-17T21:20:57.381Z,99270.34
2022-11-17T21:23:26.355Z,99281.06
2022-11-17T21:25:55.969Z,99281.91
2022-11-17T21:28:30.792Z,99221.94
2022-11-17T21:31:05.818Z,99237.41
2022-11-17T21:33:35.026Z,99280.00
2022-11-17T21:36:06.535Z,99259.41
2022-11-17T21:38:35.618Z,99287.44
2022-11-17T21:41:07.968Z,99249.91
2022-11-17T21:43:44.448Z,99296.84
2022-11-17T21:46:17.179Z,99271.66
2022-11-17T21:48:47.595Z,99296.31
2022-11-17T21:51:20.147Z,99308.22
2022-11-17T21:53:54.155Z,99266.63
2022-11-17T21:56:26.713Z,99308.94
2022-11-17T21:58:58.823Z,99309.81
2022-11-17T22:01:30.319Z,99316.28
2022-11-17T22:04:00.458Z,99316.63
2022-11-17T22:06:30.437Z,99298.28
2022-11-17T22:09:01.074Z,99277.63
2022-11-17T22:11:38.110Z,99140.56
2022-11-17T22:14:11.152Z,99316.69
2022-11-17T22:16:42.797Z,99306.47
2022-11-17T22:19:13.365Z,99315.34
2022-11-17T22:21:44.098Z,99315.38
2022-11-17T22:24:14.794Z,99325.94
2022-11-17T22:26:46.316Z,99321.88
2022-11-17T22:29:19.920Z,99292.56
2022-11-17T22:31:50.962Z,99277.97
2022-11-17T22:34:21.556Z,99238.44
2022-11-17T22:36:50.958Z,99300.50
2022-11-17T22:40:12.322Z,99310.88
2022-11-17T22:42:41.837Z,99303.00
2022-11-17T22:45:13.088Z,99308.56
2022-11-17T22:47:43.817Z,99318.50
2022-11-17T22:53:55.436Z,99320.41
2022-11-17T22:56:25.660Z,99318.41
2022-11-17T22:58:59.644Z,99327.16
2022-11-17T23:01:31.120Z,99300.41
2022-11-17T23:04:00.452Z,99312.00
2022-11-17T23:06:30.606Z,99265.31
2022-11-17T23:09:00.974Z,99321.66
2022-11-17T23:11:37.063Z,99319.94
2022-11-17T23:14:08.089Z,99143.19
2022-11-17T23:16:39.596Z,99320.63
2022-11-17T23:19:12.452Z,99312.22
2022-11-17T23:21:42.218Z,99308.34
2022-11-17T23:24:13.126Z,99316.34
2022-11-17T23:26:43.166Z,99319.75
2022-11-17T23:29:12.251Z,99276.22
2022-11-17T23:31:42.798Z,99339.31
2022-11-17T23:34:12.167Z,99333.50
2022-11-17T23:36:41.283Z,99325.84
2022-11-17T23:39:10.687Z,99314.97
2022-11-17T23:41:39.796Z,99350.72
2022-11-17T23:44:08.755Z,99340.63
2022-11-17T23:46:38.002Z,99335.78
2022-11-17T23:49:08.504Z,99347.19
2022-11-17T23:51:37.342Z,99277.22
2022-11-17T23:54:06.594Z,99329.22
2022-11-17T23:56:35.910Z,99226.13
2022-11-17T23:59:07.119Z,99342.34
